sensor_id;sensor_type;location;lat;lon;timestamp;pressure;altitude;pressure_sealevel;temperature;humidity
3206;BME280;1615;53.602;11.418;2023-02-02T00:00:42;100334.81;;;7.79;100.00
3206;BME280;1615;53.602;11.418;2023-02-02T00:03:07;100337.22;;;7.86;100.00
3206;BME280;1615;53.602;11.418;2023-02-02T00:05:34;100347.00;;;7.92;100.00
3206;BME280;1615;53.602;11.418;2023-02-02T00:08:00;100339.66;;;7.92;100.00
3206;BME280;1615;53.602;11.418;2023-02-02T00:10:27;100350.25;;;7.94;100.00
3206;BME280;1615;53.602;11.418;2023-02-02T00:12:53;100318.25;;;7.71;100.00
3206;BME280;1615;53.602;11.418;2023-02-02T00:15:22;100356.72;;;8.03;100.00
3206;BME280;1615;53.602;11.418;2023-02-02T00:17:47;100373.09;;;8.03;100.00
3206;BME280;1615;53.602;11.418;2023-02-02T00:20:13;100313.91;;;7.70;100.00
3206;BME280;1615;53.602;11.418;2023-02-02T00:22:38;100363.81;;;8.04;100.00
3206;BME280;1615;53.602;11.418;2023-02-02T00:25:06;100374.41;;;8.10;100.00
3206;BME280;1615;53.602;11.418;2023-02-02T00:27:31;100354.03;;;7.98;100.00
3206;BME280;1615;53.602;11.418;2023-02-02T00:29:57;100378.44;;;8.18;100.00
3206;BME280;1615;53.602;11.418;2023-02-02T00:32:22;100376.81;;;8.17;100.00
3206;BME280;1615;53.602;11.418;2023-02-02T00:34:47;100388.78;;;8.21;100.00
3206;BME280;1615;53.602;11.418;2023-02-02T00:37:12;100368.44;;;8.08;100.00
3206;BME280;1615;53.602;11.418;2023-02-02T00:39:38;100370.81;;;8.15;100.00
3206;BME280;1615;53.602;11.418;2023-02-02T00:42:03;100373.03;;;8.13;100.00
3206;BME280;1615;53.602;11.418;2023-02-02T00:44:31;100380.09;;;8.14;100.00
3206;BME280;1615;53.602;11.418;2023-02-02T00:47:15;100385.84;;;8.12;100.00
3206;BME280;1615;53.602;11.418;2023-02-02T00:49:42;100387.19;;;8.15;100.00
3206;BME280;1615;53.602;11.418;2023-02-02T00:52:07;100393.00;;;8.08;100.00
3206;BME280;1615;53.602;11.418;2023-02-02T00:54:33;100393.78;;;8.09;100.00
3206;BME280;1615;53.602;11.418;2023-02-02T00:56:58;100363.13;;;7.88;100.00
3206;BME280;1615;53.602;11.418;2023-02-02T00:59:23;100416.69;;;8.13;100.00
3206;BME280;1615;53.602;11.418;2023-02-02T01:01:51;100423.78;;;8.14;100.00
3206;BME280;1615;53.602;11.418;2023-02-02T01:04:17;100426.50;;;8.14;100.00
3206;BME280;1615;53.602;11.418;2023-02-02T01:06:42;100427.38;;;8.09;100.00
3206;BME280;1615;53.602;11.418;2023-02-02T01:09:07;100447.31;;;8.05;100.00
3206;BME280;1615;53.602;11.418;2023-02-02T01:11:33;100443.53;;;8.06;100.00
3206;BME280;1615;53.602;11.418;2023-02-02T01:13:58;100456.06;;;8.07;100.00
3206;BME280;1615;53.602;11.418;2023-02-02T01:16:24;100488.56;;;8.03;100.00
3206;BME280;1615;53.602;11.418;2023-02-02T01:18:49;100471.09;;;8.04;100.00
3206;BME280;1615;53.602;11.418;2023-02-02T01:21:15;100480.16;;;8.00;100.00
3206;BME280;1615;53.602;11.418;2023-02-02T01:23:40;100475.50;;;7.95;100.00
3206;BME280;1615;53.602;11.418;2023-02-02T01:26:08;100498.72;;;7.93;100.00
3206;BME280;1615;53.602;11.418;2023-02-02T01:28:35;100492.25;;;7.84;100.00
3206;BME280;1615;53.602;11.418;2023-02-02T01:31:06;100511.59;;;7.87;100.00
3206;BME280;1615;53.602;11.418;2023-02-02T01:33:31;100509.66;;;7.88;100.00
3206;BME280;1615;53.602;11.418;2023-02-02T01:35:57;100425.41;;;7.38;100.00
3206;BME280;1615;53.602;11.418;2023-02-02T01:38:23;100502.31;;;7.88;100.00
3206;BME280;1615;53.602;11.418;2023-02-02T01:40:50;100504.81;;;7.80;100.00
3206;BME280;1615;53.602;11.418;2023-02-02T01:43:25;100520.13;;;7.71;100.00
3206;BME280;1615;53.602;11.418;2023-02-02T01:45:52;100526.13;;;7.73;100.00
3206;BME280;1615;53.602;11.418;2023-02-02T01:48:24;100531.06;;;7.66;100.00
3206;BME280;1615;53.602;11.418;2023-02-02T01:50:53;100530.53;;;7.69;100.00
3206;BME280;1615;53.602;11.418;2023-02-02T01:53:20;100389.38;;;6.82;100.00
3206;BME280;1615;53.602;11.418;2023-02-02T01:55:47;100548.28;;;7.61;100.00
3206;BME280;1615;53.602;11.418;2023-02-02T01:58:26;100537.63;;;7.65;100.00
3206;BME280;1615;53.602;11.418;2023-02-02T02:00:53;100574.72;;;7.66;100.00
3206;BME280;1615;53.602;11.418;2023-02-02T02:03:21;100560.56;;;7.64;100.00
3206;BME280;1615;53.602;11.418;2023-02-02T02:05:52;100565.41;;;7.72;100.00
3206;BME280;1615;53.602;11.418;2023-02-02T02:08:47;100564.28;;;7.78;100.00
3206;BME280;1615;53.602;11.418;2023-02-02T02:11:11;100562.41;;;7.73;100.00
3206;BME280;1615;53.602;11.418;2023-02-02T02:13:38;100564.41;;;7.58;100.00
3206;BME280;1615;53.602;11.418;2023-02-02T02:21:58;100572.25;;;7.64;100.00
3206;BME280;1615;53.602;11.418;2023-02-02T02:31:42;100618.13;;;7.52;100.00
3206;BME280;1615;53.602;11.418;2023-02-02T02:34:15;100611.31;;;7.55;100.00
3206;BME280;1615;53.602;11.418;2023-02-02T02:39:19;100634.25;;;7.49;100.00
3206;BME280;1615;53.602;11.418;2023-02-02T02:41:53;100636.44;;;7.47;100.00
3206;BME280;1615;53.602;11.418;2023-02-02T02:44:20;100648.97;;;7.48;100.00
3206;BME280;1615;53.602;11.418;2023-02-02T02:46:47;100610.03;;;7.17;100.00
3206;BME280;1615;53.602;11.418;2023-02-02T02:49:13;100647.38;;;7.32;100.00
3206;BME280;1615;53.602;11.418;2023-02-02T02:51:48;100647.38;;;7.27;100.00
3206;BME280;1615;53.602;11.418;2023-02-02T02:54:19;100658.56;;;7.20;100.00
3206;BME280;1615;53.602;11.418;2023-02-02T03:02:39;100668.66;;;7.20;100.00
3206;BME280;1615;53.602;11.418;2023-02-02T03:05:49;100674.91;;;7.15;100.00
3206;BME280;1615;53.602;11.418;2023-02-02T03:10:51;100677.38;;;7.12;100.00
3206;BME280;1615;53.602;11.418;2023-02-02T03:13:17;100673.53;;;7.08;100.00
3206;BME280;1615;53.602;11.418;2023-02-02T03:15:44;100689.09;;;7.02;100.00
3206;BME280;1615;53.602;11.418;2023-02-02T03:18:14;100693.72;;;7.02;100.00
3206;BME280;1615;53.602;11.418;2023-02-02T03:20:42;100700.53;;;6.99;100.00
3206;BME280;1615;53.602;11.418;2023-02-02T03:23:09;100698.88;;;6.98;100.00
3206;BME280;1615;53.602;11.418;2023-02-02T03:25:34;100311.53;;;4.61;100.00
3206;BME280;1615;53.602;11.418;2023-02-02T03:27:59;100483.56;;;5.63;100.00
3206;BME280;1615;53.602;11.418;2023-02-02T03:30:25;100719.88;;;7.08;100.00
3206;BME280;1615;53.602;11.418;2023-02-02T03:32:51;100723.72;;;7.17;100.00
3206;BME280;1615;53.602;11.418;2023-02-02T03:35:17;100725.59;;;7.21;100.00
3206;BME280;1615;53.602;11.418;2023-02-02T03:37:44;100723.16;;;7.30;100.00
3206;BME280;1615;53.602;11.418;2023-02-02T03:40:10;100703.25;;;7.14;100.00
3206;BME280;1615;53.602;11.418;2023-02-02T03:42:35;100736.78;;;7.35;100.00
3206;BME280;1615;53.602;11.418;2023-02-02T03:45:01;100742.53;;;7.28;100.00
3206;BME280;1615;53.602;11.418;2023-02-02T03:47:29;100746.63;;;7.31;100.00
3206;BME280;1615;53.602;11.418;2023-02-02T03:49:55;100752.88;;;7.26;100.00
3206;BME280;1615;53.602;11.418;2023-02-02T03:52:21;100689.91;;;6.83;100.00
3206;BME280;1615;53.602;11.418;2023-02-02T03:54:46;100758.59;;;7.25;100.00
3206;BME280;1615;53.602;11.418;2023-02-02T03:57:11;100767.31;;;7.17;100.00
3206;BME280;1615;53.602;11.418;2023-02-02T03:59:37;100770.88;;;7.17;100.00
3206;BME280;1615;53.602;11.418;2023-02-02T04:02:02;100772.78;;;7.17;100.00
3206;BME280;1615;53.602;11.418;2023-02-02T04:04:28;100678.97;;;6.63;100.00
3206;BME280;1615;53.602;11.418;2023-02-02T04:06:53;100729.38;;;6.80;100.00
3206;BME280;1615;53.602;11.418;2023-02-02T04:09:19;100767.03;;;7.13;100.00
3206;BME280;1615;53.602;11.418;2023-02-02T04:11:44;100792.66;;;7.22;100.00
3206;BME280;1615;53.602;11.418;2023-02-02T04:14:09;100792.66;;;7.22;100.00
3206;BME280;1615;53.602;11.418;2023-02-02T04:16:35;100797.59;;;7.25;100.00
3206;BME280;1615;53.602;11.418;2023-02-02T04:19:02;100812.03;;;7.21;100.00
3206;BME280;1615;53.602;11.418;2023-02-02T04:21:28;100804.41;;;7.23;100.00
3206;BME280;1615;53.602;11.418;2023-02-02T04:23:53;100693.09;;;6.55;100.00
3206;BME280;1615;53.602;11.418;2023-02-02T04:26:18;100812.59;;;7.28;100.00
3206;BME280;1615;53.602;11.418;2023-02-02T04:28:44;100819.94;;;7.32;100.00
3206;BME280;1615;53.602;11.418;2023-02-02T04:31:09;100819.69;;;7.39;100.00
3206;BME280;1615;53.602;11.418;2023-02-02T04:33:34;100818.06;;;7.38;100.00
3206;BME280;1615;53.602;11.418;2023-02-02T04:36:00;100809.63;;;7.39;100.00
3206;BME280;1615;53.602;11.418;2023-02-02T04:38:26;100822.44;;;7.44;100.00
3206;BME280;1615;53.602;11.418;2023-02-02T04:40:51;100823.81;;;7.51;100.00
3206;BME280;1615;53.602;11.418;2023-02-02T04:43:16;100827.91;;;7.54;100.00
3206;BME280;1615;53.602;11.418;2023-02-02T04:45:42;100837.44;;;7.56;100.00
3206;BME280;1615;53.602;11.418;2023-02-02T04:48:07;100837.72;;;7.60;100.00
3206;BME280;1615;53.602;11.418;2023-02-02T04:50:33;100838.25;;;7.62;100.00
3206;BME280;1615;53.602;11.418;2023-02-02T04:52:58;100829.78;;;7.58;100.00
3206;BME280;1615;53.602;11.418;2023-02-02T04:55:23;100843.72;;;7.67;100.00
3206;BME280;1615;53.602;11.418;2023-02-02T04:57:49;100851.38;;;7.70;100.00
3206;BME280;1615;53.602;11.418;2023-02-02T05:00:15;100853.81;;;7.71;100.00
3206;BME280;1615;53.602;11.418;2023-02-02T05:02:41;100847.28;;;7.72;100.00
3206;BME280;1615;53.602;11.418;2023-02-02T05:05:09;100855.19;;;7.74;100.00
3206;BME280;1615;53.602;11.418;2023-02-02T05:07:35;100729.69;;;7.04;100.00
3206;BME280;1615;53.602;11.418;2023-02-02T05:10:01;100846.19;;;7.83;100.00
3206;BME280;1615;53.602;11.418;2023-02-02T05:12:27;100863.09;;;7.85;100.00
3206;BME280;1615;53.602;11.418;2023-02-02T05:14:52;100861.72;;;7.88;100.00
3206;BME280;1615;53.602;11.418;2023-02-02T05:17:18;100867.19;;;7.88;100.00
3206;BME280;1615;53.602;11.418;2023-02-02T05:19:43;100870.47;;;7.90;100.00
3206;BME280;1615;53.602;11.418;2023-02-02T05:22:08;100870.47;;;7.90;100.00
3206;BME280;1615;53.602;11.418;2023-02-02T05:24:34;100878.66;;;7.90;100.00
3206;BME280;1615;53.602;11.418;2023-02-02T05:26:59;100857.38;;;7.82;100.00
3206;BME280;1615;53.602;11.418;2023-02-02T05:29:28;100884.94;;;7.95;100.00
3206;BME280;1615;53.602;11.418;2023-02-02T05:31:55;100866.13;;;7.84;100.00
3206;BME280;1615;53.602;11.418;2023-02-02T05:34:21;100754.78;;;7.11;100.00
3206;BME280;1615;53.602;11.418;2023-02-02T05:36:46;100884.41;;;7.98;100.00
3206;BME280;1615;53.602;11.418;2023-02-02T05:39:12;100889.56;;;8.05;100.00
3206;BME280;1615;53.602;11.418;2023-02-02T05:41:37;100900.47;;;8.05;100.00
3206;BME280;1615;53.602;11.418;2023-02-02T05:44:03;100904.31;;;8.04;100.00
3206;BME280;1615;53.602;11.418;2023-02-02T05:46:29;100912.50;;;7.99;100.00
3206;BME280;1615;53.602;11.418;2023-02-02T05:48:54;100878.94;;;7.78;100.00
3206;BME280;1615;53.602;11.418;2023-02-02T05:51:24;100941.47;;;8.00;100.00
3206;BME280;1615;53.602;11.418;2023-02-02T05:53:51;100901.56;;;7.89;100.00
3206;BME280;1615;53.602;11.418;2023-02-02T05:56:17;100916.88;;;8.00;100.00
3206;BME280;1615;53.602;11.418;2023-02-02T05:58:42;100925.06;;;8.00;100.00
3206;BME280;1615;53.602;11.418;2023-02-02T06:01:08;100821.88;;;7.27;100.00
3206;BME280;1615;53.602;11.418;2023-02-02T06:03:34;100884.38;;;7.63;100.00
3206;BME280;1615;53.602;11.418;2023-02-02T06:06:00;100936.25;;;7.83;100.00
3206;BME280;1615;53.602;11.418;2023-02-02T06:08:25;100950.72;;;7.79;100.00
3206;BME280;1615;53.602;11.418;2023-02-02T06:10:51;100943.00;;;7.61;100.00
3206;BME280;1615;53.602;11.418;2023-02-02T06:13:16;100946.31;;;7.63;100.00
3206;BME280;1615;53.602;11.418;2023-02-02T06:15:41;100914.00;;;7.30;100.00
3206;BME280;1615;53.602;11.418;2023-02-02T06:18:08;100789.75;;;6.52;100.00
3206;BME280;1615;53.602;11.418;2023-02-02T06:20:33;100960.97;;;7.42;100.00
3206;BME280;1615;53.602;11.418;2023-02-02T06:22:59;100958.22;;;7.37;100.00
3206;BME280;1615;53.602;11.418;2023-02-02T06:25:24;100979.75;;;7.28;100.00
3206;BME280;1615;53.602;11.418;2023-02-02T06:27:54;100968.53;;;7.25;100.00
3206;BME280;1615;53.602;11.418;2023-02-02T06:30:19;100974.78;;;7.20;100.00
3206;BME280;1615;53.602;11.418;2023-02-02T06:32:44;100984.91;;;7.20;100.00
3206;BME280;1615;53.602;11.418;2023-02-02T06:35:10;100978.03;;;7.12;100.00
3206;BME280;1615;53.602;11.418;2023-02-02T06:37:35;100963.50;;;6.97;100.00
3206;BME280;1615;53.602;11.418;2023-02-02T06:40:03;100988.34;;;7.05;100.00
3206;BME280;1615;53.602;11.418;2023-02-02T06:42:29;100989.69;;;7.03;100.00
3206;BME280;1615;53.602;11.418;2023-02-02T06:44:54;101000.56;;;6.98;100.00
3206;BME280;1615;53.602;11.418;2023-02-02T06:47:20;100992.38;;;6.98;100.00
3206;BME280;1615;53.602;11.418;2023-02-02T06:49:45;101000.56;;;6.98;100.00
3206;BME280;1615;53.602;11.418;2023-02-02T06:52:10;101006.59;;;7.00;100.00
3206;BME280;1615;53.602;11.418;2023-02-02T06:54:36;101000.06;;;7.06;100.00
3206;BME280;1615;53.602;11.418;2023-02-02T06:57:01;100975.47;;;6.91;100.00
3206;BME280;1615;53.602;11.418;2023-02-02T06:59:26;101016.44;;;7.06;100.00
3206;BME280;1615;53.602;11.418;2023-02-02T07:01:51;101018.91;;;7.07;100.00
3206;BME280;1615;53.602;11.418;2023-02-02T07:04:17;100986.91;;;6.88;100.00
3206;BME280;1615;53.602;11.418;2023-02-02T07:06:43;101028.47;;;7.15;100.00
3206;BME280;1615;53.602;11.418;2023-02-02T07:09:08;100855.69;;;6.13;100.00
3206;BME280;1615;53.602;11.418;2023-02-02T07:11:33;101043.53;;;7.27;100.00
3206;BME280;1615;53.602;11.418;2023-02-02T07:14:02;101037.28;;;7.32;100.00
3206;BME280;1615;53.602;11.418;2023-02-02T07:16:28;101049.00;;;7.32;100.00
3206;BME280;1615;53.602;11.418;2023-02-02T07:18:53;101047.66;;;7.35;100.00
3206;BME280;1615;53.602;11.418;2023-02-02T07:21:21;101046.31;;;7.37;100.00
3206;BME280;1615;53.602;11.418;2023-02-02T07:23:47;101040.59;;;7.39;100.00
3206;BME280;1615;53.602;11.418;2023-02-02T07:26:14;101048.25;;;7.42;100.00
3206;BME280;1615;53.602;11.418;2023-02-02T07:28:40;101060.81;;;7.43;100.00
3206;BME280;1615;53.602;11.418;2023-02-02T07:31:21;101030.66;;;7.18;100.00
3206;BME280;1615;53.602;11.418;2023-02-02T07:33:47;101072.50;;;7.43;100.00
3206;BME280;1615;53.602;11.418;2023-02-02T07:36:15;101071.16;;;7.46;100.00
3206;BME280;1615;53.602;11.418;2023-02-02T07:38:42;101080.19;;;7.51;100.00
3206;BME280;1615;53.602;11.418;2023-02-02T07:41:07;101087.59;;;7.56;100.00
3206;BME280;1615;53.602;11.418;2023-02-02T07:43:32;101090.31;;;7.56;100.00
3206;BME280;1615;53.602;11.418;2023-02-02T07:46:02;101100.13;;;7.57;100.00
3206;BME280;1615;53.602;11.418;2023-02-02T07:48:29;101103.16;;;7.55;100.00
3206;BME280;1615;53.602;11.418;2023-02-02T07:50:58;101103.44;;;7.59;100.00
3206;BME280;1615;53.602;11.418;2023-02-02T07:53:24;101106.69;;;7.61;100.00
3206;BME280;1615;53.602;11.418;2023-02-02T07:55:49;101110.81;;;7.63;100.00
3206;BME280;1615;53.602;11.418;2023-02-02T07:58:14;101119.78;;;7.54;100.00
3206;BME280;1615;53.602;11.418;2023-02-02T08:00:40;101098.94;;;7.38;100.00
3206;BME280;1615;53.602;11.418;2023-02-02T08:03:05;101125.59;;;7.26;100.00
3206;BME280;1615;53.602;11.418;2023-02-02T08:05:30;101132.25;;;7.03;100.00
3206;BME280;1615;53.602;11.418;2023-02-02T08:07:58;100992.59;;;6.13;100.00
3206;BME280;1615;53.602;11.418;2023-02-02T08:10:24;101124.00;;;6.93;100.00
3206;BME280;1615;53.602;11.418;2023-02-02T08:12:49;101132.16;;;6.93;100.00
3206;BME280;1615;53.602;11.418;2023-02-02T08:15:14;101134.66;;;6.95;100.00
3206;BME280;1615;53.602;11.418;2023-02-02T08:17:43;101115.44;;;6.80;100.00
3206;BME280;1615;53.602;11.418;2023-02-02T08:20:11;101141.44;;;6.92;100.00
3206;BME280;1615;53.602;11.418;2023-02-02T08:22:38;101134.59;;;6.90;100.00
3206;BME280;1615;53.602;11.418;2023-02-02T08:25:04;101080.44;;;6.62;100.00
3206;BME280;1615;53.602;11.418;2023-02-02T08:27:29;101156.28;;;7.11;100.00
3206;BME280;1615;53.602;11.418;2023-02-02T08:29:55;101153.34;;;7.18;100.00
3206;BME280;1615;53.602;11.418;2023-02-02T08:32:20;101162.13;;;7.25;100.00
3206;BME280;1615;53.602;11.418;2023-02-02T08:34:47;101154.72;;;7.20;100.00
3206;BME280;1615;53.602;11.418;2023-02-02T08:37:13;101167.06;;;7.28;100.00
3206;BME280;1615;53.602;11.418;2023-02-02T08:39:38;101168.72;;;7.34;100.00
3206;BME280;1615;53.602;11.418;2023-02-02T08:42:03;101169.31;;;7.41;100.00
3206;BME280;1615;53.602;11.418;2023-02-02T08:44:29;101182.47;;;7.49;100.00
3206;BME280;1615;53.602;11.418;2023-02-02T08:46:54;101184.72;;;7.62;100.00
3206;BME280;1615;53.602;11.418;2023-02-02T08:49:19;101185.63;;;7.72;100.00
3206;BME280;1615;53.602;11.418;2023-02-02T08:51:45;101184.59;;;7.83;100.00
3206;BME280;1615;53.602;11.418;2023-02-02T08:54:11;101131.22;;;7.56;100.00
3206;BME280;1615;53.602;11.418;2023-02-02T08:56:36;101103.84;;;7.41;100.00
3206;BME280;1615;53.602;11.418;2023-02-02T08:59:01;101181.09;;;7.93;100.00
3206;BME280;1615;53.602;11.418;2023-02-02T09:01:30;101187.63;;;7.92;100.00
3206;BME280;1615;53.602;11.418;2023-02-02T09:04:01;101198.81;;;7.90;100.00
3206;BME280;1615;53.602;11.418;2023-02-02T09:06:37;101174.16;;;7.75;100.00
3206;BME280;1615;53.602;11.418;2023-02-02T09:09:04;101211.16;;;7.98;100.00
3206;BME280;1615;53.602;11.418;2023-02-02T09:11:31;101209.00;;;8.00;100.00
3206;BME280;1615;53.602;11.418;2023-02-02T09:13:58;101134.34;;;7.28;100.00
3206;BME280;1615;53.602;11.418;2023-02-02T09:16:25;101234.47;;;7.69;100.00
3206;BME280;1615;53.602;11.418;2023-02-02T09:18:51;101253.44;;;7.54;100.00
3206;BME280;1615;53.602;11.418;2023-02-02T09:21:17;101254.50;;;7.48;100.00
3206;BME280;1615;53.602;11.418;2023-02-02T09:23:44;101264.66;;;7.26;100.00
3206;BME280;1615;53.602;11.418;2023-02-02T09:28:36;101269.22;;;6.89;100.00
3206;BME280;1615;53.602;11.418;2023-02-02T09:31:02;101270.69;;;6.75;100.00
3206;BME280;1615;53.602;11.418;2023-02-02T09:33:27;101278.13;;;6.58;100.00
3206;BME280;1615;53.602;11.418;2023-02-02T09:38:40;101256.94;;;6.38;100.00
3206;BME280;1615;53.602;11.418;2023-02-02T09:44:14;101291.28;;;6.66;100.00
3206;BME280;1615;53.602;11.418;2023-02-02T09:52:02;101290.19;;;6.88;100.00
3206;BME280;1615;53.602;11.418;2023-02-02T09:54:41;101300.31;;;6.93;100.00
3206;BME280;1615;53.602;11.418;2023-02-02T09:57:14;101300.94;;;7.00;100.00
3206;BME280;1615;53.602;11.418;2023-02-02T09:59:42;101298.97;;;6.95;100.00
3206;BME280;1615;53.602;11.418;2023-02-02T10:02:19;101296.34;;;7.05;100.00
3206;BME280;1615;53.602;11.418;2023-02-02T10:04:53;101302.50;;;7.17;100.00
3206;BME280;1615;53.602;11.418;2023-02-02T10:07:26;101257.34;;;7.00;100.00
3206;BME280;1615;53.602;11.418;2023-02-02T10:10:02;101252.44;;;7.02;100.00
3206;BME280;1615;53.602;11.418;2023-02-02T10:18:36;101301.47;;;7.55;100.00
3206;BME280;1615;53.602;11.418;2023-02-02T10:23:58;101316.91;;;7.76;100.00
3206;BME280;1615;53.602;11.418;2023-02-02T10:26:38;101319.75;;;7.91;100.00
3206;BME280;1615;53.602;11.418;2023-02-02T10:32:09;101200.41;;;7.40;100.00
3206;BME280;1615;53.602;11.418;2023-02-02T10:42:42;101351.41;;;8.70;100.00
3206;BME280;1615;53.602;11.418;2023-02-02T10:45:31;101255.94;;;8.02;100.00
3206;BME280;1615;53.602;11.418;2023-02-02T10:47:57;101351.81;;;8.47;100.00
3206;BME280;1615;53.602;11.418;2023-02-02T10:50:23;101373.78;;;8.67;100.00
3206;BME280;1615;53.602;11.418;2023-02-02T10:52:53;101388.25;;;8.62;100.00
3206;BME280;1615;53.602;11.418;2023-02-02T10:55:39;101383.34;;;8.64;100.00
3206;BME280;1615;53.602;11.418;2023-02-02T11:00:46;101392.25;;;8.45;100.00
3206;BME280;1615;53.602;11.418;2023-02-02T11:03:16;101395.78;;;8.40;100.00
3206;BME280;1615;53.602;11.418;2023-02-02T11:05:44;101295.88;;;7.71;100.00
3206;BME280;1615;53.602;11.418;2023-02-02T11:08:34;101399.16;;;8.21;100.00
3206;BME280;1615;53.602;11.418;2023-02-02T11:11:27;101406.22;;;8.17;100.00
3206;BME280;1615;53.602;11.418;2023-02-02T11:16:35;101413.66;;;8.21;100.00
3206;BME280;1615;53.602;11.418;2023-02-02T11:19:20;101419.56;;;8.45;100.00
3206;BME280;1615;53.602;11.418;2023-02-02T11:21:49;101275.19;;;7.44;100.00
3206;BME280;1615;53.602;11.418;2023-02-02T11:24:30;101420.00;;;8.68;100.00
3206;BME280;1615;53.602;11.418;2023-02-02T11:27:21;101414.91;;;8.92;100.00
3206;BME280;1615;53.602;11.418;2023-02-02T11:29:50;101422.75;;;8.73;100.00
3206;BME280;1615;53.602;11.418;2023-02-02T11:35:13;101429.00;;;8.64;100.00
3206;BME280;1615;53.602;11.418;2023-02-02T11:41:05;101431.00;;;8.42;100.00
3206;BME280;1615;53.602;11.418;2023-02-02T11:43:50;101434.66;;;8.52;100.00
3206;BME280;1615;53.602;11.418;2023-02-02T11:46:26;101433.91;;;8.67;100.00
3206;BME280;1615;53.602;11.418;2023-02-02T11:49:05;101434.97;;;8.61;100.00
3206;BME280;1615;53.602;11.418;2023-02-02T11:51:34;101438.63;;;8.76;100.00
3206;BME280;1615;53.602;11.418;2023-02-02T11:54:26;101441.63;;;8.75;100.00
3206;BME280;1615;53.602;11.418;2023-02-02T11:56:59;101432.97;;;8.93;100.00
3206;BME280;1615;53.602;11.418;2023-02-02T11:59:34;101438.44;;;8.93;100.00
3206;BME280;1615;53.602;11.418;2023-02-02T12:04:48;101341.47;;;7.76;100.00
3206;BME280;1615;53.602;11.418;2023-02-02T12:07:32;101451.81;;;8.43;100.00
3206;BME280;1615;53.602;11.418;2023-02-02T12:10:10;101454.41;;;8.28;100.00
3206;BME280;1615;53.602;11.418;2023-02-02T12:12:48;101462.69;;;8.38;100.00
3206;BME280;1615;53.602;11.418;2023-02-02T12:21:10;101462.06;;;8.31;100.00
3206;BME280;1615;53.602;11.418;2023-02-02T12:26:30;101471.56;;;8.23;100.00
3206;BME280;1615;53.602;11.418;2023-02-02T12:40:01;101481.78;;;8.33;100.00
3206;BME280;1615;53.602;11.418;2023-02-02T12:42:35;101476.91;;;8.40;100.00
3206;BME280;1615;53.602;11.418;2023-02-02T12:50:53;101489.03;;;8.54;100.00
3206;BME280;1615;53.602;11.418;2023-02-02T12:56:21;101489.72;;;8.71;100.00
3206;BME280;1615;53.602;11.418;2023-02-02T13:07:19;101492.50;;;8.81;100.00
3206;BME280;1615;53.602;11.418;2023-02-02T13:12:44;101485.38;;;8.75;100.00
3206;BME280;1615;53.602;11.418;2023-02-02T13:15:16;101501.81;;;8.85;100.00
3206;BME280;1615;53.602;11.418;2023-02-02T13:17:55;101511.72;;;8.91;100.00
3206;BME280;1615;53.602;11.418;2023-02-02T13:20:37;101495.78;;;8.83;100.00
3206;BME280;1615;53.602;11.418;2023-02-02T13:23:35;101517.72;;;8.93;100.00
3206;BME280;1615;53.602;11.418;2023-02-02T13:26:22;101510.13;;;9.00;100.00
3206;BME280;1615;53.602;11.418;2023-02-02T13:28:57;101496.81;;;8.72;100.00
3206;BME280;1615;53.602;11.418;2023-02-02T13:31:38;101517.16;;;8.86;100.00
3206;BME280;1615;53.602;11.418;2023-02-02T13:36:45;101527.47;;;8.79;100.00
3206;BME280;1615;53.602;11.418;2023-02-02T13:39:20;101546.09;;;8.82;100.00
3206;BME280;1615;53.602;11.418;2023-02-02T13:41:47;101533.22;;;8.77;100.00
3206;BME280;1615;53.602;11.418;2023-02-02T13:44:34;101543.44;;;8.92;100.00
3206;BME280;1615;53.602;11.418;2023-02-02T13:47:07;101545.13;;;8.98;100.00
3206;BME280;1615;53.602;11.418;2023-02-02T13:49:37;101542.56;;;8.86;100.00
3206;BME280;1615;53.602;11.418;2023-02-02T13:52:15;101551.66;;;8.92;100.00
3206;BME280;1615;53.602;11.418;2023-02-02T14:00:20;101559.69;;;8.72;100.00
3206;BME280;1615;53.602;11.418;2023-02-02T14:02:50;101563.56;;;8.76;100.00
3206;BME280;1615;53.602;11.418;2023-02-02T14:07:46;101561.19;;;8.58;100.00
3206;BME280;1615;53.602;11.418;2023-02-02T14:10:28;101570.25;;;8.27;100.00
3206;BME280;1615;53.602;11.418;2023-02-02T14:13:05;101569.34;;;8.48;100.00
3206;BME280;1615;53.602;11.418;2023-02-02T14:15:39;101568.56;;;8.52;100.00
3206;BME280;1615;53.602;11.418;2023-02-02T14:18:05;101412.28;;;7.61;100.00
3206;BME280;1615;53.602;11.418;2023-02-02T14:20:41;101582.56;;;8.61;100.00
3206;BME280;1615;53.602;11.418;2023-02-02T14:23:47;101575.44;;;8.60;100.00
3206;BME280;1615;53.602;11.418;2023-02-02T14:26:11;101574.75;;;8.43;100.00
3206;BME280;1615;53.602;11.418;2023-02-02T14:28:46;101586.09;;;8.56;100.00
3206;BME280;1615;53.602;11.418;2023-02-02T14:31:25;101590.25;;;8.64;100.00
3206;BME280;1615;53.602;11.418;2023-02-02T14:34:25;101593.28;;;8.67;100.00
3206;BME280;1615;53.602;11.418;2023-02-02T14:39:50;101605.31;;;8.71;100.00
3206;BME280;1615;53.602;11.418;2023-02-02T14:42:29;101606.13;;;8.67;100.00
3206;BME280;1615;53.602;11.418;2023-02-02T14:45:31;101609.44;;;8.74;100.00
3206;BME280;1615;53.602;11.418;2023-02-02T14:48:06;101550.63;;;8.35;100.00
3206;BME280;1615;53.602;11.418;2023-02-02T14:50:52;101612.75;;;8.76;100.00
3206;BME280;1615;53.602;11.418;2023-02-02T14:53:20;101618.19;;;8.71;100.00
3206;BME280;1615;53.602;11.418;2023-02-02T14:56:14;101623.91;;;8.69;100.00
3206;BME280;1615;53.602;11.418;2023-02-02T15:06:28;101644.28;;;8.57;100.00
3206;BME280;1615;53.602;11.418;2023-02-02T15:25:45;101656.50;;;8.23;100.00
3206;BME280;1615;53.602;11.418;2023-02-02T15:31:19;101667.78;;;8.10;100.00
3206;BME280;1615;53.602;11.418;2023-02-02T15:33:49;101676.44;;;8.02;100.00
3206;BME280;1615;53.602;11.418;2023-02-02T15:36:22;101641.38;;;7.72;100.00
3206;BME280;1615;53.602;11.418;2023-02-02T15:38:51;101671.84;;;7.86;100.00
3206;BME280;1615;53.602;11.418;2023-02-02T15:41:22;101675.38;;;7.86;100.00
3206;BME280;1615;53.602;11.418;2023-02-02T15:43:48;101665.09;;;7.72;100.00